sensor_id;sensor_type;location;lat;lon;timestamp;temperature;humidity
15959;DHT22;8078;47.822;9.402;2022-09-17T00:01:57;7.70;99.90
15959;DHT22;8078;47.822;9.402;2022-09-17T00:04:22;7.70;99.90
15959;DHT22;8078;47.822;9.402;2022-09-17T00:06:48;7.70;99.90
15959;DHT22;8078;47.822;9.402;2022-09-17T00:09:14;7.70;99.90
15959;DHT22;8078;47.822;9.402;2022-09-17T00:11:41;7.80;99.90
15959;DHT22;8078;47.822;9.402;2022-09-17T00:14:09;7.70;99.90
15959;DHT22;8078;47.822;9.402;2022-09-17T00:16:40;7.70;99.90
15959;DHT22;8078;47.822;9.402;2022-09-17T00:19:07;7.70;99.90
15959;DHT22;8078;47.822;9.402;2022-09-17T00:21:34;7.70;99.90
15959;DHT22;8078;47.822;9.402;2022-09-17T00:24:02;7.60;99.90
15959;DHT22;8078;47.822;9.402;2022-09-17T00:26:29;7.60;99.90
15959;DHT22;8078;47.822;9.402;2022-09-17T00:28:56;7.60;99.90
15959;DHT22;8078;47.822;9.402;2022-09-17T00:31:23;7.50;99.90
15959;DHT22;8078;47.822;9.402;2022-09-17T00:33:49;7.50;99.90
15959;DHT22;8078;47.822;9.402;2022-09-17T00:36:14;7.50;99.90
15959;DHT22;8078;47.822;9.402;2022-09-17T00:38:40;7.50;99.90
15959;DHT22;8078;47.822;9.402;2022-09-17T00:41:06;7.50;99.90
15959;DHT22;8078;47.822;9.402;2022-09-17T00:46:18;7.50;99.90
15959;DHT22;8078;47.822;9.402;2022-09-17T00:48:45;7.50;99.90
15959;DHT22;8078;47.822;9.402;2022-09-17T00:51:14;7.50;99.90
15959;DHT22;8078;47.822;9.402;2022-09-17T00:56:31;7.50;99.90
15959;DHT22;8078;47.822;9.402;2022-09-17T00:58:56;7.50;99.90
15959;DHT22;8078;47.822;9.402;2022-09-17T01:03:49;7.60;99.90
15959;DHT22;8078;47.822;9.402;2022-09-17T01:09:03;7.50;99.90
15959;DHT22;8078;47.822;9.402;2022-09-17T01:11:35;7.40;99.90
15959;DHT22;8078;47.822;9.402;2022-09-17T01:19:39;7.50;99.90
15959;DHT22;8078;47.822;9.402;2022-09-17T01:24:59;7.40;99.90
15959;DHT22;8078;47.822;9.402;2022-09-17T01:33:19;7.40;99.90
15959;DHT22;8078;47.822;9.402;2022-09-17T01:36:02;7.40;99.90
15959;DHT22;8078;47.822;9.402;2022-09-17T01:38:43;7.50;99.90
15959;DHT22;8078;47.822;9.402;2022-09-17T01:44:51;7.50;99.90
15959;DHT22;8078;47.822;9.402;2022-09-17T01:47:27;7.50;99.90
15959;DHT22;8078;47.822;9.402;2022-09-17T01:50:12;7.50;99.90
15959;DHT22;8078;47.822;9.402;2022-09-17T01:52:43;7.40;99.90
15959;DHT22;8078;47.822;9.402;2022-09-17T01:55:16;7.30;99.90
15959;DHT22;8078;47.822;9.402;2022-09-17T01:57:56;7.30;99.90
15959;DHT22;8078;47.822;9.402;2022-09-17T02:00:23;7.40;99.90
15959;DHT22;8078;47.822;9.402;2022-09-17T02:03:18;7.30;99.90
15959;DHT22;8078;47.822;9.402;2022-09-17T02:05:51;7.30;99.90
15959;DHT22;8078;47.822;9.402;2022-09-17T02:08:21;7.30;99.90
15959;DHT22;8078;47.822;9.402;2022-09-17T02:10:51;7.30;99.90
15959;DHT22;8078;47.822;9.402;2022-09-17T02:16:14;7.20;99.90
15959;DHT22;8078;47.822;9.402;2022-09-17T02:19:08;7.20;99.90
15959;DHT22;8078;47.822;9.402;2022-09-17T02:21:43;7.10;99.90
15959;DHT22;8078;47.822;9.402;2022-09-17T02:24:23;7.10;99.90
15959;DHT22;8078;47.822;9.402;2022-09-17T02:27:11;7.00;99.90
15959;DHT22;8078;47.822;9.402;2022-09-17T02:29:41;7.10;99.90
15959;DHT22;8078;47.822;9.402;2022-09-17T02:32:08;7.00;99.90
15959;DHT22;8078;47.822;9.402;2022-09-17T02:34:34;7.00;99.90
15959;DHT22;8078;47.822;9.402;2022-09-17T02:37:00;7.00;99.90
15959;DHT22;8078;47.822;9.402;2022-09-17T02:39:27;7.00;99.90
15959;DHT22;8078;47.822;9.402;2022-09-17T02:42:05;6.90;99.90
15959;DHT22;8078;47.822;9.402;2022-09-17T02:44:37;7.00;99.90
15959;DHT22;8078;47.822;9.402;2022-09-17T02:49:53;6.90;99.90
15959;DHT22;8078;47.822;9.402;2022-09-17T02:52:50;6.90;99.90
15959;DHT22;8078;47.822;9.402;2022-09-17T02:57:56;6.90;99.90
15959;DHT22;8078;47.822;9.402;2022-09-17T03:00:23;6.90;99.90
15959;DHT22;8078;47.822;9.402;2022-09-17T03:03:11;6.90;99.90
15959;DHT22;8078;47.822;9.402;2022-09-17T03:05:37;7.00;99.90
15959;DHT22;8078;47.822;9.402;2022-09-17T03:08:08;7.00;99.90
15959;DHT22;8078;47.822;9.402;2022-09-17T03:10:34;7.00;99.90
15959;DHT22;8078;47.822;9.402;2022-09-17T03:12:59;7.00;99.90
15959;DHT22;8078;47.822;9.402;2022-09-17T03:15:25;7.00;99.90
15959;DHT22;8078;47.822;9.402;2022-09-17T03:17:51;6.90;99.90
15959;DHT22;8078;47.822;9.402;2022-09-17T03:20:16;6.90;99.90
15959;DHT22;8078;47.822;9.402;2022-09-17T03:22:42;6.90;99.90
15959;DHT22;8078;47.822;9.402;2022-09-17T03:25:08;6.90;99.90
15959;DHT22;8078;47.822;9.402;2022-09-17T03:27:34;6.90;99.90
15959;DHT22;8078;47.822;9.402;2022-09-17T03:29:59;6.80;99.90
15959;DHT22;8078;47.822;9.402;2022-09-17T03:32:25;6.80;99.90
15959;DHT22;8078;47.822;9.402;2022-09-17T03:34:51;6.80;99.90
15959;DHT22;8078;47.822;9.402;2022-09-17T03:37:18;6.80;99.90
15959;DHT22;8078;47.822;9.402;2022-09-17T03:39:43;6.80;99.90
15959;DHT22;8078;47.822;9.402;2022-09-17T03:42:09;6.80;99.90
15959;DHT22;8078;47.822;9.402;2022-09-17T03:44:34;6.80;99.90
15959;DHT22;8078;47.822;9.402;2022-09-17T03:47:00;6.80;99.90
15959;DHT22;8078;47.822;9.402;2022-09-17T03:49:26;6.70;99.90
15959;DHT22;8078;47.822;9.402;2022-09-17T03:51:51;6.70;99.90
15959;DHT22;8078;47.822;9.402;2022-09-17T03:54:17;6.70;99.90
15959;DHT22;8078;47.822;9.402;2022-09-17T03:56:43;6.70;99.90
15959;DHT22;8078;47.822;9.402;2022-09-17T03:59:08;6.70;99.90
15959;DHT22;8078;47.822;9.402;2022-09-17T04:01:34;6.60;99.90
15959;DHT22;8078;47.822;9.402;2022-09-17T04:04:01;6.70;99.90
15959;DHT22;8078;47.822;9.402;2022-09-17T04:06:26;6.60;99.90
15959;DHT22;8078;47.822;9.402;2022-09-17T04:08:52;6.60;99.90
15959;DHT22;8078;47.822;9.402;2022-09-17T04:11:18;6.60;99.90
15959;DHT22;8078;47.822;9.402;2022-09-17T04:13:43;6.60;99.90
15959;DHT22;8078;47.822;9.402;2022-09-17T04:16:09;6.60;99.90
15959;DHT22;8078;47.822;9.402;2022-09-17T04:18:35;6.60;99.90
15959;DHT22;8078;47.822;9.402;2022-09-17T04:21:01;6.60;99.90
15959;DHT22;8078;47.822;9.402;2022-09-17T04:23:27;6.60;99.90
15959;DHT22;8078;47.822;9.402;2022-09-17T04:25:52;6.50;99.90
15959;DHT22;8078;47.822;9.402;2022-09-17T04:28:18;6.60;99.90
15959;DHT22;8078;47.822;9.402;2022-09-17T04:30:43;6.50;99.90
15959;DHT22;8078;47.822;9.402;2022-09-17T04:33:10;6.50;99.90
15959;DHT22;8078;47.822;9.402;2022-09-17T04:35:35;6.50;99.90
15959;DHT22;8078;47.822;9.402;2022-09-17T04:38:01;6.50;99.90
15959;DHT22;8078;47.822;9.402;2022-09-17T04:40:27;6.50;99.90
15959;DHT22;8078;47.822;9.402;2022-09-17T04:42:54;6.50;99.90
15959;DHT22;8078;47.822;9.402;2022-09-17T04:45:20;6.50;99.90
15959;DHT22;8078;47.822;9.402;2022-09-17T04:47:46;6.50;99.90
15959;DHT22;8078;47.822;9.402;2022-09-17T04:50:11;6.50;99.90
15959;DHT22;8078;47.822;9.402;2022-09-17T04:52:41;6.50;99.90
15959;DHT22;8078;47.822;9.402;2022-09-17T04:55:07;6.50;99.90
15959;DHT22;8078;47.822;9.402;2022-09-17T04:57:33;6.50;99.90
15959;DHT22;8078;47.822;9.402;2022-09-17T04:59:59;6.40;99.90
15959;DHT22;8078;47.822;9.402;2022-09-17T05:02:24;6.40;99.90
15959;DHT22;8078;47.822;9.402;2022-09-17T05:04:50;6.30;99.90
15959;DHT22;8078;47.822;9.402;2022-09-17T05:07:15;6.30;99.90
15959;DHT22;8078;47.822;9.402;2022-09-17T05:09:41;6.40;99.90
15959;DHT22;8078;47.822;9.402;2022-09-17T05:12:07;6.40;99.90
15959;DHT22;8078;47.822;9.402;2022-09-17T05:14:32;6.40;99.90
15959;DHT22;8078;47.822;9.402;2022-09-17T05:16:58;6.40;99.90
15959;DHT22;8078;47.822;9.402;2022-09-17T05:19:24;6.40;99.90
15959;DHT22;8078;47.822;9.402;2022-09-17T05:21:49;6.40;99.90
15959;DHT22;8078;47.822;9.402;2022-09-17T05:24:15;6.40;99.90
15959;DHT22;8078;47.822;9.402;2022-09-17T05:26:40;6.40;99.90
15959;DHT22;8078;47.822;9.402;2022-09-17T05:29:06;6.40;99.90
15959;DHT22;8078;47.822;9.402;2022-09-17T05:31:31;6.40;99.90
15959;DHT22;8078;47.822;9.402;2022-09-17T05:33:57;6.30;99.90
15959;DHT22;8078;47.822;9.402;2022-09-17T05:36:23;6.30;99.90
15959;DHT22;8078;47.822;9.402;2022-09-17T05:38:49;6.30;99.90
15959;DHT22;8078;47.822;9.402;2022-09-17T05:41:15;6.30;99.90
15959;DHT22;8078;47.822;9.402;2022-09-17T05:43:42;6.30;99.90
15959;DHT22;8078;47.822;9.402;2022-09-17T05:46:08;6.30;99.90
15959;DHT22;8078;47.822;9.402;2022-09-17T05:48:34;6.30;99.90
15959;DHT22;8078;47.822;9.402;2022-09-17T05:50:59;6.30;99.90
15959;DHT22;8078;47.822;9.402;2022-09-17T05:53:25;6.40;99.90
15959;DHT22;8078;47.822;9.402;2022-09-17T05:55:54;6.40;99.90
15959;DHT22;8078;47.822;9.402;2022-09-17T05:58:21;6.50;99.90
15959;DHT22;8078;47.822;9.402;2022-09-17T06:00:46;6.60;99.90
15959;DHT22;8078;47.822;9.402;2022-09-17T06:03:14;6.70;99.90
15959;DHT22;8078;47.822;9.402;2022-09-17T06:05:40;6.80;99.90
15959;DHT22;8078;47.822;9.402;2022-09-17T06:08:07;6.90;99.90
15959;DHT22;8078;47.822;9.402;2022-09-17T06:10:37;7.00;99.90
15959;DHT22;8078;47.822;9.402;2022-09-17T06:13:03;7.10;99.90
15959;DHT22;8078;47.822;9.402;2022-09-17T06:15:28;7.00;99.90
15959;DHT22;8078;47.822;9.402;2022-09-17T06:17:54;6.90;99.90
15959;DHT22;8078;47.822;9.402;2022-09-17T06:20:20;7.00;99.90
15959;DHT22;8078;47.822;9.402;2022-09-17T06:22:46;7.00;99.90
15959;DHT22;8078;47.822;9.402;2022-09-17T06:25:12;7.00;99.90
15959;DHT22;8078;47.822;9.402;2022-09-17T06:27:37;7.00;99.90
15959;DHT22;8078;47.822;9.402;2022-09-17T06:30:04;7.00;99.90
15959;DHT22;8078;47.822;9.402;2022-09-17T06:32:29;7.00;99.90
15959;DHT22;8078;47.822;9.402;2022-09-17T06:34:56;7.10;99.90
15959;DHT22;8078;47.822;9.402;2022-09-17T06:37:32;6.80;99.90
15959;DHT22;8078;47.822;9.402;2022-09-17T06:39:58;6.80;99.90
15959;DHT22;8078;47.822;9.402;2022-09-17T06:42:24;6.70;99.90
15959;DHT22;8078;47.822;9.402;2022-09-17T06:44:50;6.80;99.90
15959;DHT22;8078;47.822;9.402;2022-09-17T06:47:16;6.70;99.90
15959;DHT22;8078;47.822;9.402;2022-09-17T06:49:42;6.40;99.90
15959;DHT22;8078;47.822;9.402;2022-09-17T06:52:08;6.60;99.90
15959;DHT22;8078;47.822;9.402;2022-09-17T06:54:33;6.50;99.90
15959;DHT22;8078;47.822;9.402;2022-09-17T06:56:59;6.60;99.90
15959;DHT22;8078;47.822;9.402;2022-09-17T06:59:24;6.60;99.90
15959;DHT22;8078;47.822;9.402;2022-09-17T07:01:51;6.60;99.90
15959;DHT22;8078;47.822;9.402;2022-09-17T07:04:16;6.60;99.90
15959;DHT22;8078;47.822;9.402;2022-09-17T07:06:43;6.60;99.90
15959;DHT22;8078;47.822;9.402;2022-09-17T07:09:09;6.60;99.90
15959;DHT22;8078;47.822;9.402;2022-09-17T07:11:36;6.60;99.90
15959;DHT22;8078;47.822;9.402;2022-09-17T07:14:02;6.70;99.90
15959;DHT22;8078;47.822;9.402;2022-09-17T07:16:28;6.60;99.90
15959;DHT22;8078;47.822;9.402;2022-09-17T07:18:59;6.70;99.90
15959;DHT22;8078;47.822;9.402;2022-09-17T07:21:24;6.80;99.90
15959;DHT22;8078;47.822;9.402;2022-09-17T07:23:50;7.00;99.90
15959;DHT22;8078;47.822;9.402;2022-09-17T07:26:16;7.40;99.90
15959;DHT22;8078;47.822;9.402;2022-09-17T07:28:42;7.70;99.90
15959;DHT22;8078;47.822;9.402;2022-09-17T07:31:09;8.00;99.90
15959;DHT22;8078;47.822;9.402;2022-09-17T07:33:35;8.30;99.90
15959;DHT22;8078;47.822;9.402;2022-09-17T07:36:04;8.40;99.90
15959;DHT22;8078;47.822;9.402;2022-09-17T07:38:30;8.50;99.90
15959;DHT22;8078;47.822;9.402;2022-09-17T07:41:01;8.30;99.90
15959;DHT22;8078;47.822;9.402;2022-09-17T07:43:30;8.40;99.90
15959;DHT22;8078;47.822;9.402;2022-09-17T07:45:58;8.40;99.90
15959;DHT22;8078;47.822;9.402;2022-09-17T07:48:24;8.20;99.90
15959;DHT22;8078;47.822;9.402;2022-09-17T07:50:50;8.40;99.90
15959;DHT22;8078;47.822;9.402;2022-09-17T07:53:16;8.30;99.90
15959;DHT22;8078;47.822;9.402;2022-09-17T07:55:41;8.40;99.90
15959;DHT22;8078;47.822;9.402;2022-09-17T07:58:07;8.30;99.90
15959;DHT22;8078;47.822;9.402;2022-09-17T08:00:33;8.50;99.90
15959;DHT22;8078;47.822;9.402;2022-09-17T08:02:59;8.30;99.90
15959;DHT22;8078;47.822;9.402;2022-09-17T08:05:25;8.00;99.90
15959;DHT22;8078;47.822;9.402;2022-09-17T08:07:51;7.70;99.90
15959;DHT22;8078;47.822;9.402;2022-09-17T08:10:18;7.50;99.90
15959;DHT22;8078;47.822;9.402;2022-09-17T08:12:48;7.50;99.90
15959;DHT22;8078;47.822;9.402;2022-09-17T08:15:15;7.50;99.90
15959;DHT22;8078;47.822;9.402;2022-09-17T08:17:44;7.70;99.90
15959;DHT22;8078;47.822;9.402;2022-09-17T08:20:10;7.90;99.90
15959;DHT22;8078;47.822;9.402;2022-09-17T08:22:36;8.20;99.90
15959;DHT22;8078;47.822;9.402;2022-09-17T08:25:02;8.20;99.90
15959;DHT22;8078;47.822;9.402;2022-09-17T08:27:31;8.40;99.90
15959;DHT22;8078;47.822;9.402;2022-09-17T08:29:57;8.80;99.90
15959;DHT22;8078;47.822;9.402;2022-09-17T08:32:23;9.10;99.90
15959;DHT22;8078;47.822;9.402;2022-09-17T08:34:49;8.80;99.90
15959;DHT22;8078;47.822;9.402;2022-09-17T08:37:14;8.40;99.90
15959;DHT22;8078;47.822;9.402;2022-09-17T08:39:40;8.20;99.90
15959;DHT22;8078;47.822;9.402;2022-09-17T08:42:31;8.50;99.90
15959;DHT22;8078;47.822;9.402;2022-09-17T08:45:03;8.70;99.90
15959;DHT22;8078;47.822;9.402;2022-09-17T08:47:33;8.90;99.90
15959;DHT22;8078;47.822;9.402;2022-09-17T08:50:12;9.30;99.90
15959;DHT22;8078;47.822;9.402;2022-09-17T08:57:58;9.10;99.90
15959;DHT22;8078;47.822;9.402;2022-09-17T09:00:24;9.20;99.90
15959;DHT22;8078;47.822;9.402;2022-09-17T09:05:46;9.20;99.90
15959;DHT22;8078;47.822;9.402;2022-09-17T09:11:03;9.20;99.90
15959;DHT22;8078;47.822;9.402;2022-09-17T09:13:46;9.70;99.90
15959;DHT22;8078;47.822;9.402;2022-09-17T09:16:18;9.60;99.90
15959;DHT22;8078;47.822;9.402;2022-09-17T09:18:45;9.60;99.90
15959;DHT22;8078;47.822;9.402;2022-09-17T09:21:28;9.60;99.90
15959;DHT22;8078;47.822;9.402;2022-09-17T09:26:47;9.30;99.90
15959;DHT22;8078;47.822;9.402;2022-09-17T09:29:41;9.60;99.90
15959;DHT22;8078;47.822;9.402;2022-09-17T09:32:42;9.80;99.90
15959;DHT22;8078;47.822;9.402;2022-09-17T09:35:23;10.00;99.90
15959;DHT22;8078;47.822;9.402;2022-09-17T09:40:32;9.80;99.90
15959;DHT22;8078;47.822;9.402;2022-09-17T09:43:00;9.60;99.90
15959;DHT22;8078;47.822;9.402;2022-09-17T09:45:47;9.60;99.90
15959;DHT22;8078;47.822;9.402;2022-09-17T09:48:28;8.80;99.90
15959;DHT22;8078;47.822;9.402;2022-09-17T09:51:37;9.30;99.90
15959;DHT22;8078;47.822;9.402;2022-09-17T09:57:19;10.20;99.90
15959;DHT22;8078;47.822;9.402;2022-09-17T09:59:46;9.60;99.90
15959;DHT22;8078;47.822;9.402;2022-09-17T10:02:12;9.40;99.90
15959;DHT22;8078;47.822;9.402;2022-09-17T10:04:37;9.50;99.90
15959;DHT22;8078;47.822;9.402;2022-09-17T10:07:05;9.60;99.90
15959;DHT22;8078;47.822;9.402;2022-09-17T10:09:37;9.70;99.90
15959;DHT22;8078;47.822;9.402;2022-09-17T10:14:42;9.50;99.90
15959;DHT22;8078;47.822;9.402;2022-09-17T10:20:12;9.60;99.90
15959;DHT22;8078;47.822;9.402;2022-09-17T10:22:45;9.80;99.90
15959;DHT22;8078;47.822;9.402;2022-09-17T10:25:23;10.10;99.90
15959;DHT22;8078;47.822;9.402;2022-09-17T10:27:51;10.20;99.90
15959;DHT22;8078;47.822;9.402;2022-09-17T10:30:18;10.20;99.90
15959;DHT22;8078;47.822;9.402;2022-09-17T10:32:43;10.00;99.90
15959;DHT22;8078;47.822;9.402;2022-09-17T10:35:30;10.00;99.90
15959;DHT22;8078;47.822;9.402;2022-09-17T10:37:55;9.50;99.90
15959;DHT22;8078;47.822;9.402;2022-09-17T10:40:26;9.60;99.90
15959;DHT22;8078;47.822;9.402;2022-09-17T10:45:41;9.80;99.90
15959;DHT22;8078;47.822;9.402;2022-09-17T10:48:15;9.90;99.90
15959;DHT22;8078;47.822;9.402;2022-09-17T10:50:52;9.80;99.90
15959;DHT22;8078;47.822;9.402;2022-09-17T10:53:19;9.90;99.90
15959;DHT22;8078;47.822;9.402;2022-09-17T11:01:34;9.00;99.90
15959;DHT22;8078;47.822;9.402;2022-09-17T11:07:32;8.10;99.90
15959;DHT22;8078;47.822;9.402;2022-09-17T11:17:54;8.30;99.90
15959;DHT22;8078;47.822;9.402;2022-09-17T11:20:29;8.60;99.90
15959;DHT22;8078;47.822;9.402;2022-09-17T11:23:00;8.80;99.90
15959;DHT22;8078;47.822;9.402;2022-09-17T11:25:54;9.00;99.90
15959;DHT22;8078;47.822;9.402;2022-09-17T11:34:22;10.30;99.90
15959;DHT22;8078;47.822;9.402;2022-09-17T11:39:26;10.90;99.90
15959;DHT22;8078;47.822;9.402;2022-09-17T11:41:54;10.80;99.90
15959;DHT22;8078;47.822;9.402;2022-09-17T11:44:33;10.80;99.90
15959;DHT22;8078;47.822;9.402;2022-09-17T11:47:06;10.90;99.90
15959;DHT22;8078;47.822;9.402;2022-09-17T11:49:41;10.70;99.90
15959;DHT22;8078;47.822;9.402;2022-09-17T11:52:22;10.30;99.90
15959;DHT22;8078;47.822;9.402;2022-09-17T11:54:54;9.90;99.90
15959;DHT22;8078;47.822;9.402;2022-09-17T11:57:31;10.10;99.90
15959;DHT22;8078;47.822;9.402;2022-09-17T12:00:12;10.80;99.90
15959;DHT22;8078;47.822;9.402;2022-09-17T12:08:09;10.50;99.90
15959;DHT22;8078;47.822;9.402;2022-09-17T12:11:03;10.70;99.90
15959;DHT22;8078;47.822;9.402;2022-09-17T12:13:51;10.90;99.90
15959;DHT22;8078;47.822;9.402;2022-09-17T12:16:22;11.10;99.90
15959;DHT22;8078;47.822;9.402;2022-09-17T12:22:03;10.90;99.90
15959;DHT22;8078;47.822;9.402;2022-09-17T12:24:30;11.00;99.90
15959;DHT22;8078;47.822;9.402;2022-09-17T12:44:24;10.90;99.90
15959;DHT22;8078;47.822;9.402;2022-09-17T12:55:45;11.90;99.90
15959;DHT22;8078;47.822;9.402;2022-09-17T13:00:52;11.50;99.90
15959;DHT22;8078;47.822;9.402;2022-09-17T13:03:27;10.70;99.90
15959;DHT22;8078;47.822;9.402;2022-09-17T13:06:13;9.70;99.90
15959;DHT22;8078;47.822;9.402;2022-09-17T13:12:03;8.00;99.90
15959;DHT22;8078;47.822;9.402;2022-09-17T13:17:29;8.20;99.90
15959;DHT22;8078;47.822;9.402;2022-09-17T13:20:04;9.00;99.90
15959;DHT22;8078;47.822;9.402;2022-09-17T13:22:45;9.90;99.90
15959;DHT22;8078;47.822;9.402;2022-09-17T13:25:13;10.30;99.90
15959;DHT22;8078;47.822;9.402;2022-09-17T13:27:40;10.60;99.90
15959;DHT22;8078;47.822;9.402;2022-09-17T13:30:10;10.90;99.90
15959;DHT22;8078;47.822;9.402;2022-09-17T13:38:04;10.10;99.90
15959;DHT22;8078;47.822;9.402;2022-09-17T13:40:33;9.80;99.90
15959;DHT22;8078;47.822;9.402;2022-09-17T13:45:29;9.30;99.90
15959;DHT22;8078;47.822;9.402;2022-09-17T13:50:31;9.80;99.90
15959;DHT22;8078;47.822;9.402;2022-09-17T13:53:04;10.00;99.90
15959;DHT22;8078;47.822;9.402;2022-09-17T13:55:37;10.10;99.90
15959;DHT22;8078;47.822;9.402;2022-09-17T14:01:05;10.10;99.90
15959;DHT22;8078;47.822;9.402;2022-09-17T14:08:45;10.90;99.90
15959;DHT22;8078;47.822;9.402;2022-09-17T14:19:33;11.30;99.90
15959;DHT22;8078;47.822;9.402;2022-09-17T14:35:41;10.00;99.90
15959;DHT22;8078;47.822;9.402;2022-09-17T14:44:11;11.00;99.90
15959;DHT22;8078;47.822;9.402;2022-09-17T14:46:58;11.20;99.90
15959;DHT22;8078;47.822;9.402;2022-09-17T14:49:27;11.30;99.90
15959;DHT22;8078;47.822;9.402;2022-09-17T14:51:57;10.70;99.90
15959;DHT22;8078;47.822;9.402;2022-09-17T14:54:29;10.80;99.90
15959;DHT22;8078;47.822;9.402;2022-09-17T14:57:04;11.00;99.90
15959;DHT22;8078;47.822;9.402;2022-09-17T14:59:56;10.90;99.90
15959;DHT22;8078;47.822;9.402;2022-09-17T15:02:33;10.60;99.90
15959;DHT22;8078;47.822;9.402;2022-09-17T15:05:00;10.60;99.90
15959;DHT22;8078;47.822;9.402;2022-09-17T15:07:27;10.30;99.90
15959;DHT22;8078;47.822;9.402;2022-09-17T15:09:52;10.20;99.90
15959;DHT22;8078;47.822;9.402;2022-09-17T15:12:23;10.10;99.90
15959;DHT22;8078;47.822;9.402;2022-09-17T15:14:49;10.10;99.90
15959;DHT22;8078;47.822;9.402;2022-09-17T15:17:17;10.20;99.90
15959;DHT22;8078;47.822;9.402;2022-09-17T15:19:55;10.30;99.90
15959;DHT22;8078;47.822;9.402;2022-09-17T15:22:33;10.10;99.90
15959;DHT22;8078;47.822;9.402;2022-09-17T15:25:28;10.20;99.90
15959;DHT22;8078;47.822;9.402;2022-09-17T15:27:56;10.10;99.90
15959;DHT22;8078;47.822;9.402;2022-09-17T15:30:23;10.10;99.90
15959;DHT22;8078;47.822;9.402;2022-09-17T15:32:57;10.00;99.90
15959;DHT22;8078;47.822;9.402;2022-09-17T15:35:28;9.90;99.90
15959;DHT22;8078;47.822;9.402;2022-09-17T15:38:00;9.90;99.90
15959;DHT22;8078;47.822;9.402;2022-09-17T15:40:36;9.80;99.90
15959;DHT22;8078;47.822;9.402;2022-09-17T15:43:20;9.80;99.90
15959;DHT22;8078;47.822;9.402;2022-09-17T15:45:48;9.70;99.90
15959;DHT22;8078;47.822;9.402;2022-09-17T15:51:00;9.10;99.90
15959;DHT22;8078;47.822;9.402;2022-09-17T15:53:28;9.10;99.90
15959;DHT22;8078;47.822;9.402;2022-09-17T15:56:04;8.90;99.90
15959;DHT22;8078;47.822;9.402;2022-09-17T16:08:58;8.70;99.90
15959;DHT22;8078;47.822;9.402;2022-09-17T16:11:29;8.60;99.90
15959;DHT22;8078;47.822;9.402;2022-09-17T16:13:56;8.50;99.90
15959;DHT22;8078;47.822;9.402;2022-09-17T16:16:34;8.30;99.90
15959;DHT22;8078;47.822;9.402;2022-09-17T16:19:00;8.20;99.90
15959;DHT22;8078;47.822;9.402;2022-09-17T16:21:26;8.10;99.90
15959;DHT22;8078;47.822;9.402;2022-09-17T16:23:53;8.10;99.90
15959;DHT22;8078;47.822;9.402;2022-09-17T16:26:38;8.00;99.90
15959;DHT22;8078;47.822;9.402;2022-09-17T16:29:06;8.00;99.90
15959;DHT22;8078;47.822;9.402;2022-09-17T16:31:32;8.20;99.90
15959;DHT22;8078;47.822;9.402;2022-09-17T16:33:58;8.40;99.90
15959;DHT22;8078;47.822;9.402;2022-09-17T16:36:25;8.30;99.90
15959;DHT22;8078;47.822;9.402;2022-09-17T16:38:51;8.40;99.90
15959;DHT22;8078;47.822;9.402;2022-09-17T16:41:17;8.20;99.90
15959;DHT22;8078;47.822;9.402;2022-09-17T16:43:42;8.30;99.90
15959;DHT22;8078;47.822;9.402;2022-09-17T16:46:09;8.30;99.90
15959;DHT22;8078;47.822;9.402;2022-09-17T16:48:36;8.20;99.90
15959;DHT22;8078;47.822;9.402;2022-09-17T16:51:12;8.10;99.90
15959;DHT22;8078;47.822;9.402;2022-09-17T16:53:38;8.00;99.90
15959;DHT22;8078;47.822;9.402;2022-09-17T16:56:08;7.90;99.90
15959;DHT22;8078;47.822;9.402;2022-09-17T16:58:34;7.80;99.90
15959;DHT22;8078;47.822;9.402;2022-09-17T17:01:07;7.90;99.90
15959;DHT22;8078;47.822;9.402;2022-09-17T17:03:33;7.90;99.90
15959;DHT22;8078;47.822;9.402;2022-09-17T17:05:59;7.90;99.90
15959;DHT22;8078;47.822;9.402;2022-09-17T17:08:24;7.90;99.90
15959;DHT22;8078;47.822;9.402;2022-09-17T17:10:50;8.10;99.90
15959;DHT22;8078;47.822;9.402;2022-09-17T17:13:15;8.00;99.90
15959;DHT22;8078;47.822;9.402;2022-09-17T17:15:41;8.00;99.90
15959;DHT22;8078;47.822;9.402;2022-09-17T17:18:07;8.00;99.90
15959;DHT22;8078;47.822;9.402;2022-09-17T17:20:35;8.00;99.90
15959;DHT22;8078;47.822;9.402;2022-09-17T17:23:01;8.00;99.90
15959;DHT22;8078;47.822;9.402;2022-09-17T17:25:29;8.00;99.90
15959;DHT22;8078;47.822;9.402;2022-09-17T17:27:55;8.00;99.90
15959;DHT22;8078;47.822;9.402;2022-09-17T17:30:21;7.90;99.90
15959;DHT22;8078;47.822;9.402;2022-09-17T17:32:51;7.90;99.90
15959;DHT22;8078;47.822;9.402;2022-09-17T17:35:18;7.90;99.90
15959;DHT22;8078;47.822;9.402;2022-09-17T17:37:44;7.90;99.90
15959;DHT22;8078;47.822;9.402;2022-09-17T17:40:10;7.80;99.90
15959;DHT22;8078;47.822;9.402;2022-09-17T17:42:36;7.80;99.90
15959;DHT22;8078;47.822;9.402;2022-09-17T17:45:05;7.80;99.90
15959;DHT22;8078;47.822;9.402;2022-09-17T17:47:31;7.70;99.90
15959;DHT22;8078;47.822;9.402;2022-09-17T17:49:56;7.70;99.90
15959;DHT22;8078;47.822;9.402;2022-09-17T17:52:22;7.70;99.90
15959;DHT22;8078;47.822;9.402;2022-09-17T17:54:48;7.60;99.90
15959;DHT22;8078;47.822;9.402;2022-09-17T17:57:13;7.60;99.90
15959;DHT22;8078;47.822;9.402;2022-09-17T17:59:39;7.60;99.90
15959;DHT22;8078;47.822;9.402;2022-09-17T18:02:04;7.60;99.90
15959;DHT22;8078;47.822;9.402;2022-09-17T18:04:30;7.60;99.90
15959;DHT22;8078;47.822;9.402;2022-09-17T18:06:56;7.60;99.90
15959;DHT22;8078;47.822;9.402;2022-09-17T18:09:21;7.50;99.90
15959;DHT22;8078;47.822;9.402;2022-09-17T18:11:47;7.50;99.90
15959;DHT22;8078;47.822;9.402;2022-09-17T18:14:13;7.50;99.90
15959;DHT22;8078;47.822;9.402;2022-09-17T18:16:39;7.50;99.90
15959;DHT22;8078;47.822;9.402;2022-09-17T18:19:05;7.50;99.90
15959;DHT22;8078;47.822;9.402;2022-09-17T18:21:30;7.50;99.90
15959;DHT22;8078;47.822;9.402;2022-09-17T18:23:56;7.50;99.90
15959;DHT22;8078;47.822;9.402;2022-09-17T18:26:24;7.50;99.90
15959;DHT22;8078;47.822;9.402;2022-09-17T18:28:50;7.50;99.90
15959;DHT22;8078;47.822;9.402;2022-09-17T18:31:30;7.50;99.90
15959;DHT22;8078;47.822;9.402;2022-09-17T18:34:16;7.50;99.90
15959;DHT22;8078;47.822;9.402;2022-09-17T18:36:42;7.50;99.90
15959;DHT22;8078;47.822;9.402;2022-09-17T18:39:11;7.40;99.90
15959;DHT22;8078;47.822;9.402;2022-09-17T18:41:39;7.40;99.90
15959;DHT22;8078;47.822;9.402;2022-09-17T18:44:06;7.40;99.90
15959;DHT22;8078;47.822;9.402;2022-09-17T18:46:32;7.40;99.90
15959;DHT22;8078;47.822;9.402;2022-09-17T18:48:58;7.40;99.90
15959;DHT22;8078;47.822;9.402;2022-09-17T18:51:25;7.40;99.90
15959;DHT22;8078;47.822;9.402;2022-09-17T18:53:52;7.40;99.90
15959;DHT22;8078;47.822;9.402;2022-09-17T18:56:25;7.40;99.90
15959;DHT22;8078;47.822;9.402;2022-09-17T18:58:54;7.40;99.90
15959;DHT22;8078;47.822;9.402;2022-09-17T19:01:22;7.40;99.90
15959;DHT22;8078;47.822;9.402;2022-09-17T19:03:48;7.30;99.90
15959;DHT22;8078;47.822;9.402;2022-09-17T19:06:14;7.40;99.90
15959;DHT22;8078;47.822;9.402;2022-09-17T19:08:40;7.40;99.90
15959;DHT22;8078;47.822;9.402;2022-09-17T19:11:06;7.40;99.90
15959;DHT22;8078;47.822;9.402;2022-09-17T19:13:34;7.30;99.90
15959;DHT22;8078;47.822;9.402;2022-09-17T19:16:00;7.30;99.90
15959;DHT22;8078;47.822;9.402;2022-09-17T19:18:26;7.40;99.90
15959;DHT22;8078;47.822;9.402;2022-09-17T19:20:57;7.40;99.90
15959;DHT22;8078;47.822;9.402;2022-09-17T19:23:22;7.40;99.90
15959;DHT22;8078;47.822;9.402;2022-09-17T19:25:48;7.40;99.90
15959;DHT22;8078;47.822;9.402;2022-09-17T19:28:13;7.50;99.90